Time;durP1;ratioP1;P1;durP2;ratioP2;P2;SDS_P1;SDS_P2;PMS_P1;PMS_P2;Temp;Humidity;BMP_temperature;BMP_pressure;BME280_temperature;BME280_humidity;BME280_pressure;Samples;Min_cycle;Max_cycle;Signal;HPM_P1;HPM_P2
2023/01/01 00:00:34;;;;;;;15.23;8.93;;;15.20;98.60;;;15.34;85.99;100658.69;5128195;28;20055;-69
2023/01/01 00:03:07;;;;;;;16.73;9.50;;;15.20;98.40;;;15.32;87.53;100655.16;5145909;28;20057;-69
2023/01/01 00:05:40;;;;;;;18.08;10.55;;;15.10;99.00;;;15.35;86.81;100652.56;5144165;28;20053;-69
2023/01/01 00:08:13;;;;;;;14.82;7.70;;;15.10;98.90;;;15.32;88.39;100660.41;5145236;28;20121;-69
2023/01/01 00:10:47;;;;;;;13.27;7.15;;;15.10;99.50;;;15.32;87.85;100660.41;5130880;28;20488;-69
2023/01/01 00:13:19;;;;;;;15.85;6.88;;;15.10;99.10;;;15.29;86.72;100655.09;5164491;28;20046;-69
2023/01/01 00:15:51;;;;;;;8.98;5.85;;;15.10;98.70;;;15.28;84.68;100662.97;5145442;28;20523;-70
2023/01/01 00:18:23;;;;;;;14.40;6.25;;;15.10;98.00;;;15.30;86.47;100680.50;5160225;28;20057;-71
2023/01/01 00:21:03;;;;;;;12.15;6.00;;;15.10;98.90;;;15.25;87.48;100669.03;5145055;28;20050;-70
2023/01/01 00:23:35;;;;;;;11.07;6.43;;;15.10;99.10;;;15.27;88.84;100664.72;5147200;28;20046;-71
2023/01/01 00:26:12;;;;;;;8.68;5.20;;;15.10;99.70;;;15.24;87.00;100662.03;5165094;28;20047;-69
2023/01/01 00:28:44;;;;;;;7.40;4.00;;;15.00;99.00;;;15.20;86.08;100665.50;5164664;28;20567;-69
2023/01/01 00:31:21;;;;;;;10.82;4.70;;;15.00;98.30;;;15.18;86.94;100672.44;5165142;28;20047;-70
2023/01/01 00:33:55;;;;;;;8.70;4.55;;;15.00;98.80;;;15.15;86.53;100688.16;5165328;28;20073;-69
2023/01/01 00:36:28;;;;;;;7.43;4.25;;;15.00;98.80;;;15.17;88.76;100696.94;5164950;28;20125;-70
2023/01/01 00:39:02;;;;;;;7.00;3.67;;;15.00;99.50;;;15.18;86.52;100699.59;5163237;28;20043;-68
2023/01/01 00:41:37;;;;;;;6.88;3.92;;;15.00;98.80;;;15.13;88.34;100697.78;5162153;28;20130;-70
2023/01/01 00:44:09;;;;;;;7.72;4.00;;;15.00;99.50;;;15.12;88.04;100690.72;5163057;28;20499;-69
2023/01/01 00:46:42;;;;;;;7.45;3.75;;;14.90;99.30;;;15.09;88.74;100680.19;5164655;28;20144;-67
2023/01/01 00:49:15;;;;;;;8.07;4.22;;;14.90;99.30;;;15.09;88.75;100678.47;5165285;28;20130;-68
2023/01/01 00:51:48;;;;;;;9.52;5.07;;;14.90;99.70;;;15.09;90.92;100682.81;5164743;28;20379;-67
2023/01/01 00:54:20;;;;;;;7.38;3.90;;;14.90;99.90;;;15.08;90.41;100676.69;5163863;28;20150;-69
2023/01/01 00:56:54;;;;;;;6.00;3.60;;;14.90;99.90;;;15.07;90.32;100668.81;5147598;28;20150;-69
2023/01/01 00:59:26;;;;;;;5.53;3.08;;;14.90;99.90;;;15.01;88.14;100659.09;5164700;28;20053;-69
2023/01/01 01:01:58;;;;;;;6.05;2.72;;;14.90;99.40;;;14.98;87.68;100652.91;5164954;28;20047;-67
2023/01/01 01:04:30;;;;;;;4.30;2.78;;;14.80;99.30;;;14.98;87.14;100647.66;5164791;28;20035;-70
2023/01/01 01:07:03;;;;;;;3.78;2.15;;;14.80;98.90;;;14.96;86.07;100649.38;5164821;28;20522;-69
2023/01/01 01:09:35;;;;;;;3.65;1.92;;;14.80;98.20;;;15.04;84.51;100658.25;5164576;28;20038;-68
2023/01/01 01:12:08;;;;;;;6.65;2.90;;;14.80;97.90;;;15.10;86.15;100666.22;5164667;28;20045;-70
2023/01/01 01:14:41;;;;;;;5.10;2.53;;;14.90;98.70;;;15.08;87.99;100667.94;5164579;28;20503;-69
2023/01/01 01:17:13;;;;;;;4.95;2.03;;;14.90;99.30;;;15.09;86.17;100677.56;5164029;28;20050;-67
2023/01/01 01:19:45;;;;;;;5.53;3.30;;;14.90;98.70;;;15.07;87.44;100684.56;5164273;28;20496;-68
2023/01/01 01:22:18;;;;;;;4.70;2.03;;;14.90;99.20;;;15.03;88.81;100701.09;5164685;28;20046;-69
2023/01/01 01:24:50;;;;;;;4.00;2.20;;;14.90;99.20;;;15.03;87.74;100701.09;5164276;28;20081;-66
2023/01/01 01:27:24;;;;;;;3.17;1.45;;;14.80;99.10;;;15.07;83.25;100705.56;5164210;28;20046;-68
2023/01/01 01:29:56;;;;;;;5.18;2.75;;;14.90;97.50;;;15.10;86.12;100698.59;5146652;28;20142;-68
2023/01/01 01:32:28;;;;;;;4.72;2.60;;;14.90;98.60;;;15.09;88.20;100704.72;5164950;28;20036;-67
2023/01/01 01:35:00;;;;;;;3.58;2.17;;;14.90;99.70;;;15.06;89.28;100714.25;5164158;28;20049;-69
2023/01/01 01:37:32;;;;;;;4.22;2.42;;;14.90;99.60;;;15.05;87.57;100708.13;5164226;28;20045;-69
2023/01/01 01:40:06;;;;;;;3.70;1.85;;;14.90;99.20;;;15.04;86.54;100713.38;5162817;28;20197;-68
2023/01/01 01:42:40;;;;;;;4.00;2.08;;;14.90;98.90;;;15.05;86.41;100713.38;5146612;28;20050;-68
2023/01/01 01:45:13;;;;;;;6.47;2.47;;;14.80;98.90;;;15.06;87.95;100722.13;5164075;28;20076;-68
2023/01/01 01:47:50;;;;;;;4.00;1.92;;;14.90;99.20;;;15.08;87.12;100723.06;5164268;28;20050;-66
2023/01/01 01:50:26;;;;;;;3.97;1.75;;;14.90;99.20;;;15.09;87.91;100735.34;5164041;28;20050;-68
2023/01/01 01:53:04;;;;;;;2.67;1.60;;;14.90;99.60;;;15.03;87.43;100722.09;5163975;28;20468;-68
2023/01/01 01:55:41;;;;;;;3.88;1.73;;;14.80;99.20;;;15.01;89.17;100735.22;5164104;28;20049;-67
2023/01/01 01:58:16;;;;;;;3.40;1.63;;;14.80;99.90;;;14.98;86.54;100736.91;5230850;22;20046;-72
2023/01/01 02:00:49;;;;;;;3.20;2.00;;;14.80;98.80;;;14.97;88.21;100735.13;5181084;28;20046;-71
2023/01/01 02:03:26;;;;;;;2.58;1.38;;;14.80;99.80;;;15.00;85.84;100735.19;5183469;28;20121;-71
2023/01/01 02:06:00;;;;;;;2.83;1.60;;;14.80;98.90;;;14.98;86.06;100757.91;5183945;28;20042;-72
2023/01/01 02:08:34;;;;;;;2.65;1.42;;;14.80;98.80;;;14.98;85.12;100752.66;5183197;28;20560;-71
2023/01/01 02:11:06;;;;;;;3.83;1.52;;;14.80;98.10;;;14.99;85.02;100759.66;5168664;28;20085;-73
2023/01/01 02:13:40;;;;;;;2.83;1.25;;;14.80;98.30;;;14.93;84.95;100750.84;5162447;28;20061;-71
2023/01/01 02:16:19;;;;;;;3.45;1.67;;;14.80;98.10;;;14.96;83.71;100752.63;5145385;28;20129;-71
2023/01/01 02:19:00;;;;;;;4.47;1.05;;;14.70;97.60;;;15.01;81.21;100753.59;5162111;28;20044;-71
2023/01/01 02:21:38;;;;;;;2.08;1.30;;;14.80;96.50;;;14.98;82.64;100745.66;5162930;28;20030;-71
2023/01/01 02:24:27;;;;;;;1.75;1.05;;;14.80;97.10;;;14.93;83.79;100744.69;5162482;28;20053;-71
2023/01/01 02:27:04;;;;;;;2.65;1.40;;;14.80;97.40;;;14.99;86.64;100747.41;5159964;28;20046;-72
2023/01/01 02:29:45;;;;;;;2.65;1.40;;;14.80;98.80;;;15.04;84.71;100742.25;5144662;28;20121;-71
2023/01/01 02:32:22;;;;;;;2.50;1.23;;;14.80;98.20;;;15.03;82.48;100735.22;5163436;28;20479;-71
2023/01/01 02:35:33;;;;;;;2.55;1.42;;;14.80;97.30;;;15.04;81.11;100729.13;5162435;28;20038;-71
2023/01/01 02:37:59;;;;;;;5.07;1.80;;;14.80;96.40;;;15.07;84.84;100739.69;5144637;28;20455;-71
2023/01/01 02:40:33;;;;;;;2.28;1.15;;;14.80;98.10;;;15.07;81.38;100737.06;5162127;28;20046;-71
2023/01/01 02:43:07;;;;;;;2.00;1.13;;;14.90;96.60;;;15.07;82.13;100750.19;5162974;28;20038;-71
2023/01/01 02:45:41;;;;;;;3.08;1.40;;;14.90;97.00;;;15.09;85.50;100735.34;5161967;28;20073;-71
2023/01/01 02:48:39;;;;;;;2.92;1.13;;;14.90;98.20;;;15.03;85.26;100745.72;5145034;28;20042;-71
2023/01/01 02:51:20;;;;;;;1.88;1.20;;;14.90;98.10;;;15.07;80.86;100758.06;5162230;28;20049;-70
2023/01/01 02:54:01;;;;;;;2.35;1.40;;;14.90;96.30;;;15.06;83.31;100740.50;5162574;28;20041;-72
2023/01/01 02:56:41;;;;;;;2.45;1.30;;;14.90;97.20;;;15.07;83.61;100737.06;5162035;28;20050;-71
2023/01/01 03:02:26;;;;;;;1.73;1.02;;;14.90;96.80;;;15.10;83.98;100740.59;5162766;28;20054;-71
2023/01/01 03:05:09;;;;;;;3.03;1.30;;;14.90;97.60;;;15.15;81.74;100743.31;5161727;28;20100;-72
2023/01/01 03:07:54;;;;;;;1.60;1.27;;;14.90;96.80;;;15.17;81.33;100744.19;5161834;28;20046;-71
2023/01/01 03:10:38;;;;;;;4.10;1.08;;;15.00;96.30;;;15.20;83.44;100744.25;5148567;28;20038;-71
2023/01/01 03:13:19;;;;;;;2.60;1.02;;;15.00;97.30;;;15.19;81.01;100742.47;5162735;28;20038;-71
2023/01/01 03:16:00;;;;;;;2.40;1.10;;;15.00;96.10;;;15.20;84.24;100750.41;5162661;28;20068;-72
2023/01/01 03:18:41;;;;;;;1.45;1.00;;;15.00;97.40;;;15.18;83.30;100738.09;5162674;28;20141;-71
2023/01/01 03:21:16;;;;;;;3.13;0.85;;;15.00;97.10;;;15.19;84.37;100732.88;5180156;28;20042;-71
2023/01/01 03:23:53;;;;;;;2.33;1.13;;;15.00;97.50;;;15.20;81.95;100733.75;5157859;28;20135;-72
2023/01/01 03:26:30;;;;;;;1.98;1.20;;;15.00;96.60;;;15.22;81.28;100736.41;5162357;28;20053;-72
2023/01/01 03:29:05;;;;;;;3.20;1.05;;;15.00;96.20;;;15.20;80.78;100721.50;5168805;28;20095;-71
2023/01/01 03:31:43;;;;;;;2.03;1.25;;;15.00;96.10;;;15.20;83.29;100733.75;5143425;28;20049;-72
2023/01/01 03:34:25;;;;;;;1.92;1.13;;;15.00;97.00;;;15.20;82.44;100739.91;5161784;28;20046;-72
2023/01/01 03:37:00;;;;;;;1.33;1.00;;;15.00;96.70;;;15.22;83.02;100758.28;5161187;28;20047;-72
2023/01/01 03:39:37;;;;;;;3.40;1.40;;;15.00;96.90;;;15.22;84.21;100753.03;5158190;28;20046;-71
2023/01/01 03:42:19;;;;;;;3.70;1.05;;;15.00;97.60;;;15.25;81.58;100763.56;5165636;28;20046;-71
2023/01/01 03:44:56;;;;;;;0.95;0.93;;;15.00;96.40;;;15.24;83.66;100769.69;5166138;28;20058;-71
2023/01/01 03:47:30;;;;;;;4.10;1.20;;;15.00;97.30;;;15.22;83.98;100763.53;5144893;28;20121;-72
2023/01/01 03:50:06;;;;;;;5.35;1.25;;;15.00;97.40;;;15.20;82.49;100760.03;5161055;28;20096;-72
2023/01/01 03:52:45;;;;;;;1.67;0.93;;;15.00;96.90;;;15.17;85.21;100752.06;5165460;28;20065;-72
2023/01/01 03:55:25;;;;;;;3.53;1.10;;;15.00;97.70;;;15.19;83.62;100764.38;5164774;28;20039;-71
2023/01/01 03:58:04;;;;;;;1.63;1.02;;;15.00;97.20;;;15.13;83.94;100763.41;5165133;28;20045;-73
2023/01/01 04:00:43;;;;;;;2.70;1.08;;;15.00;97.50;;;15.14;84.37;100760.81;5165198;28;20038;-72
2023/01/01 04:03:20;;;;;;;2.75;1.00;;;14.90;97.50;;;15.16;84.51;100753.81;5162548;28;20038;-72
2023/01/01 04:05:54;;;;;;;4.22;1.20;;;15.00;97.70;;;15.16;84.83;100752.94;5166034;28;20065;-71
2023/01/01 04:08:26;;;;;;;3.08;1.05;;;15.00;97.90;;;15.14;84.68;100760.81;5165782;28;20078;-70
2023/01/01 04:12:00;;;;;;;2.10;1.10;;;14.90;97.70;;;15.11;83.76;100765.09;5148351;28;20161;-71
2023/01/01 04:13:53;;;;;;;1.70;1.10;;;14.90;97.30;;;15.11;86.24;100759.84;5165564;28;20053;-70
2023/01/01 04:16:27;;;;;;;2.63;1.17;;;14.90;98.40;;;15.10;88.67;100760.72;5166011;28;20051;-72
2023/01/01 04:18:59;;;;;;;3.42;1.13;;;14.90;99.10;;;15.07;89.24;100771.19;5165143;28;20049;-71
2023/01/01 04:21:32;;;;;;;2.15;1.02;;;14.90;99.40;;;15.10;88.99;100765.97;5148218;28;20054;-71
2023/01/01 04:24:05;;;;;;;1.42;1.15;;;14.90;99.30;;;15.09;86.35;100767.72;5165383;28;20052;-72
2023/01/01 04:26:37;;;;;;;2.17;0.90;;;14.90;98.40;;;15.10;84.52;100763.34;5148175;28;20050;-72
2023/01/01 04:29:09;;;;;;;2.70;1.02;;;14.90;98.00;;;15.07;85.28;100774.69;5165465;28;20049;-70
2023/01/01 04:31:41;;;;;;;4.82;1.38;;;14.90;98.10;;;15.06;86.94;100772.94;5165230;28;20051;-72
2023/01/01 04:34:13;;;;;;;2.00;1.10;;;14.90;98.70;;;15.06;86.65;100769.41;5165768;28;20052;-72
2023/01/01 04:36:47;;;;;;;2.55;1.00;;;14.90;98.60;;;15.09;87.20;100774.72;5147610;28;20061;-71
2023/01/01 04:39:20;;;;;;;1.63;0.95;;;14.90;98.80;;;15.09;87.53;100772.97;5147983;28;20050;-72
2023/01/01 04:41:52;;;;;;;2.30;0.98;;;14.90;99.10;;;15.10;89.80;100773.84;5147493;28;20049;-71
2023/01/01 04:44:25;;;;;;;2.08;1.10;;;14.90;99.80;;;15.06;88.88;100778.19;5147626;28;20058;-71
2023/01/01 04:46:57;;;;;;;1.73;1.05;;;14.90;99.50;;;15.06;89.02;100785.16;5165019;28;20057;-71
2023/01/01 04:49:30;;;;;;;3.17;0.85;;;14.80;99.40;;;15.02;88.32;100771.09;5165166;28;20451;-70
2023/01/01 04:52:05;;;;;;;2.05;0.93;;;14.90;99.20;;;15.02;88.87;100775.47;5164237;28;20399;-72
2023/01/01 04:54:37;;;;;;;0.93;0.73;;;14.80;99.50;;;15.01;88.01;100778.97;5164956;28;20053;-71
2023/01/01 04:57:09;;;;;;;1.88;1.15;;;14.80;99.10;;;15.04;91.17;100785.13;5164852;28;20050;-71
2023/01/01 04:59:41;;;;;;;2.38;0.93;;;14.80;99.90;;;14.99;89.25;100785.91;5164481;28;20074;-71
2023/01/01 05:02:14;;;;;;;1.05;0.82;;;14.80;99.60;;;14.97;89.52;100787.63;5164961;28;20047;-71
2023/01/01 05:04:46;;;;;;;2.35;1.02;;;14.80;99.90;;;15.01;87.50;100782.47;5164744;28;20050;-72
2023/01/01 05:07:20;;;;;;;2.80;1.20;;;14.80;99.10;;;14.99;89.31;100775.41;5163978;28;20503;-71
2023/01/01 05:09:52;;;;;;;1.35;1.00;;;14.80;99.80;;;14.98;90.36;100787.66;5147055;28;20050;-71
2023/01/01 05:12:26;;;;;;;3.22;1.02;;;14.80;99.90;;;14.95;89.12;100784.09;5164439;28;20046;-72
2023/01/01 05:14:58;;;;;;;2.92;1.08;;;14.80;99.90;;;14.93;89.71;100787.59;5164612;28;20054;-71
2023/01/01 05:17:30;;;;;;;4.38;1.30;;;14.70;99.80;;;14.96;89.80;100778.00;5163836;28;20050;-72
2023/01/01 05:20:02;;;;;;;1.52;1.02;;;14.70;99.90;;;14.95;88.72;100779.75;5164524;28;20491;-72
2023/01/01 05:22:36;;;;;;;2.17;1.27;;;14.70;99.50;;;14.93;89.99;100779.72;5164165;28;20042;-71
2023/01/01 05:25:09;;;;;;;3.85;1.20;;;14.70;99.90;;;14.87;89.48;100792.72;5164266;28;20046;-71
2023/01/01 05:27:42;;;;;;;2.28;1.08;;;14.70;99.60;;;14.86;91.45;100790.94;5163827;28;20046;-72
2023/01/01 05:30:14;;;;;;;3.08;1.25;;;14.70;99.90;;;14.95;90.34;100802.47;5163977;28;20053;-72
2023/01/01 05:32:46;;;;;;;2.85;1.20;;;14.70;99.90;;;14.94;90.11;100804.22;5163791;28;20407;-70
2023/01/01 05:35:18;;;;;;;4.60;1.30;;;14.70;99.90;;;14.92;90.16;100804.16;5164219;28;20096;-72
2023/01/01 05:37:52;;;;;;;3.00;1.13;;;14.70;99.90;;;14.91;89.94;100820.78;5163553;28;20125;-71
2023/01/01 05:40:24;;;;;;;1.20;0.82;;;14.70;99.90;;;14.86;91.27;100809.31;5146559;28;20236;-71
2023/01/01 05:42:56;;;;;;;3.47;1.23;;;14.70;99.90;;;14.85;94.54;100814.53;5163753;28;20192;-72
2023/01/01 05:45:29;;;;;;;1.88;1.00;;;14.70;99.90;;;14.86;92.80;100811.94;5164108;28;20132;-73
2023/01/01 05:48:03;;;;;;;3.17;1.20;;;14.70;99.90;;;14.83;92.12;100817.16;5163389;28;20061;-72
2023/01/01 05:50:35;;;;;;;1.48;1.00;;;14.70;99.90;;;14.81;91.48;100797.88;5159109;28;20056;-72
2023/01/01 05:53:08;;;;;;;1.25;0.93;;;14.60;99.90;;;14.79;91.42;100820.56;5163410;28;20053;-71
2023/01/01 05:55:40;;;;;;;2.95;0.93;;;14.60;99.90;;;14.82;91.71;100820.63;5146379;28;20057;-71
2023/01/01 05:58:13;;;;;;;1.85;0.82;;;14.60;99.90;;;14.80;92.58;100832.84;5162956;28;20038;-72
2023/01/01 06:00:46;;;;;;;1.40;0.90;;;14.60;99.90;;;14.82;93.57;100840.75;5163676;28;20054;-72
2023/01/01 06:03:18;;;;;;;1.30;0.93;;;14.60;99.90;;;14.84;92.44;100839.03;5145864;28;20113;-71
2023/01/01 06:05:50;;;;;;;3.35;1.13;;;14.60;99.90;;;14.86;92.14;100848.69;5163383;28;20038;-73
2023/01/01 06:08:24;;;;;;;1.25;1.00;;;14.60;99.90;;;14.87;93.95;100853.09;5163400;28;20517;-72
2023/01/01 06:11:00;;;;;;;2.08;1.00;;;14.60;99.90;;;14.85;92.35;100861.78;5163752;28;20053;-72
2023/01/01 06:13:32;;;;;;;3.65;1.13;;;14.60;99.90;;;14.84;92.77;100870.50;5163434;28;20048;-71
2023/01/01 06:16:06;;;;;;;1.52;1.00;;;14.60;99.90;;;14.84;93.16;100876.66;5163596;28;20046;-71
2023/01/01 06:18:38;;;;;;;1.77;1.00;;;14.70;99.90;;;14.83;93.42;100874.88;5162865;28;20426;-72
2023/01/01 06:21:13;;;;;;;3.17;0.93;;;14.60;99.90;;;14.80;94.12;100885.34;5163723;28;20474;-71
2023/01/01 06:23:47;;;;;;;2.95;1.33;;;14.60;99.90;;;14.76;93.73;100873.00;5163722;28;20058;-71
2023/01/01 06:26:21;;;;;;;1.80;0.95;;;14.60;99.90;;;14.73;94.11;100862.44;5163435;28;20038;-71
2023/01/01 06:28:55;;;;;;;4.80;1.23;;;14.60;99.90;;;14.75;92.99;100875.59;5162788;28;20081;-72
2023/01/01 06:31:29;;;;;;;2.58;1.77;;;14.60;99.90;;;14.74;93.53;100885.22;5163200;28;20050;-72
2023/01/01 06:34:02;;;;;;;1.85;1.13;;;14.50;99.90;;;14.74;92.11;100874.72;5163153;28;20093;-72
2023/01/01 06:36:34;;;;;;;1.60;0.95;;;14.60;99.90;;;14.74;92.82;100882.59;5163851;28;20049;-72
2023/01/01 06:39:08;;;;;;;3.35;0.90;;;14.50;99.90;;;14.73;94.01;100891.28;5162776;28;20540;-71
2023/01/01 06:41:41;;;;;;;1.60;1.00;;;14.50;99.90;;;14.70;93.72;100893.00;5145941;28;20116;-71
2023/01/01 06:44:13;;;;;;;2.55;0.93;;;14.50;99.90;;;14.68;95.25;100885.09;5163496;28;20042;-71
2023/01/01 06:46:45;;;;;;;3.13;1.05;;;14.50;99.90;;;14.66;95.54;100889.41;5145875;28;20050;-72
2023/01/01 06:49:18;;;;;;;1.25;1.10;;;14.50;99.90;;;14.64;95.13;100899.88;5162441;28;20078;-71
2023/01/01 06:51:50;;;;;;;4.30;1.30;;;14.50;99.90;;;14.64;94.92;100891.13;5163553;28;20053;-72
2023/01/01 06:54:24;;;;;;;1.75;1.15;;;14.50;99.90;;;14.66;96.27;100897.28;5162742;28;20042;-72
2023/01/01 06:56:56;;;;;;;2.33;1.10;;;14.50;99.90;;;14.64;95.38;100905.13;5162944;28;20052;-72
2023/01/01 06:59:28;;;;;;;1.55;0.82;;;14.50;99.90;;;14.64;95.75;100920.88;5162770;28;20050;-71
2023/01/01 07:02:00;;;;;;;2.17;1.00;;;14.50;99.90;;;14.64;95.70;100914.75;5162905;28;20053;-72
2023/01/01 07:04:32;;;;;;;2.25;1.00;;;14.50;99.90;;;14.68;94.76;100898.22;5162965;28;20128;-58
2023/01/01 07:07:05;;;;;;;1.00;0.82;;;14.50;99.90;;;14.68;95.35;100906.09;5162742;28;20038;-59
2023/01/01 07:09:38;;;;;;;2.13;1.33;;;14.50;99.90;;;14.67;95.44;100901.69;5162246;28;20047;-58
2023/01/01 07:12:10;;;;;;;3.83;1.50;;;14.50;99.90;;;14.68;95.82;100908.72;5162542;28;20053;-59
2023/01/01 07:14:42;;;;;;;1.63;1.00;;;14.50;99.90;;;14.71;95.91;100906.13;5165221;28;20050;-59
2023/01/01 07:17:14;;;;;;;2.00;0.90;;;14.50;99.90;;;14.69;94.97;100901.72;5166705;28;20050;-59
2023/01/01 07:19:46;;;;;;;4.05;1.20;;;14.50;99.90;;;14.66;93.97;100905.16;5166220;28;20136;-58
2023/01/01 07:22:19;;;;;;;3.80;1.02;;;14.50;99.90;;;14.68;93.76;100913.97;5166556;28;20042;-58
2023/01/01 07:24:52;;;;;;;1.50;1.25;;;14.50;99.90;;;14.71;93.78;100923.63;5166312;28;20057;-58
2023/01/01 07:27:24;;;;;;;1.58;1.10;;;14.50;99.90;;;14.73;95.41;100930.66;5165866;28;20050;-57
2023/01/01 07:29:56;;;;;;;3.22;1.10;;;14.50;99.90;;;14.73;95.11;100930.66;5166215;28;20050;-58
2023/01/01 07:32:28;;;;;;;2.67;1.13;;;14.50;99.90;;;14.71;94.84;100937.63;5166244;28;20061;-58
2023/01/01 07:35:00;;;;;;;2.08;1.00;;;14.50;99.90;;;14.73;95.91;100933.28;5166024;28;20050;-58
2023/01/01 07:37:32;;;;;;;1.25;0.93;;;14.50;99.90;;;14.71;95.96;100942.88;5166195;28;20050;-58
2023/01/01 07:40:08;;;;;;;3.05;1.10;;;14.50;99.90;;;14.71;95.26;100941.97;5165913;28;20526;-58
2023/01/01 07:42:40;;;;;;;1.42;1.00;;;14.50;99.90;;;14.71;95.92;100963.84;5166326;28;20039;-60
2023/01/01 07:45:13;;;;;;;1.75;1.15;;;14.50;99.90;;;14.72;95.66;100963.00;5166285;28;20054;-59
2023/01/01 07:47:50;;;;;;;1.60;1.00;;;14.50;99.90;;;14.76;95.67;100967.47;5148006;28;20054;-58
2023/01/01 07:50:24;;;;;;;3.22;1.27;;;14.60;99.90;;;14.77;95.67;100979.72;5165861;28;20048;-58
2023/01/01 07:52:56;;;;;;;2.88;1.02;;;14.50;99.90;;;14.77;95.79;100984.97;5165799;28;20069;-59
2023/01/01 07:55:30;;;;;;;4.97;1.20;;;14.60;99.90;;;14.76;94.62;100987.56;5165802;28;20121;-57
2023/01/01 07:58:02;;;;;;;2.22;1.30;;;14.50;99.90;;;14.77;94.13;100994.59;5164758;28;20419;-58
2023/01/01 08:00:34;;;;;;;2.38;1.10;;;14.50;99.90;;;14.76;94.60;100998.94;5165311;28;20117;-59
2023/01/01 08:03:06;;;;;;;1.80;1.00;;;14.50;99.90;;;14.76;94.31;101001.56;5165429;28;20046;-58
2023/01/01 08:05:39;;;;;;;2.42;1.00;;;14.50;99.90;;;14.77;94.71;101007.72;5165496;28;20167;-58
2023/01/01 08:08:11;;;;;;;3.17;0.82;;;14.50;99.90;;;14.74;95.36;101002.41;5164866;28;20046;-58
2023/01/01 08:10:45;;;;;;;2.38;1.30;;;14.50;99.90;;;14.72;95.42;100994.47;5165307;28;20129;-57
2023/01/01 08:13:17;;;;;;;2.45;1.00;;;14.50;99.90;;;14.70;96.02;101001.44;5165593;28;20046;-57
2023/01/01 08:15:50;;;;;;;1.23;0.98;;;14.50;99.90;;;14.71;96.00;101005.84;5148020;28;20058;-58
2023/01/01 08:18:22;;;;;;;2.20;1.02;;;14.50;99.90;;;14.73;97.33;101014.63;5165331;28;20415;-59
2023/01/01 08:20:56;;;;;;;2.35;1.20;;;14.50;99.90;;;14.76;96.72;101014.69;5165091;28;20056;-59
2023/01/01 08:23:28;;;;;;;2.45;1.20;;;14.50;99.90;;;14.79;95.40;101009.50;5165291;28;20451;-58
2023/01/01 08:26:03;;;;;;;7.30;1.40;;;14.60;99.90;;;14.79;95.83;101013.88;5164195;28;20568;-58
2023/01/01 08:28:35;;;;;;;;;;;14.60;99.90;;;14.73;96.40;101025.13;5164564;28;20503;-59
2023/01/01 08:31:07;;;;;;;2.85;1.15;;;14.50;99.90;;;14.77;96.40;101037.47;5164877;28;19960;-58
2023/01/01 08:33:40;;;;;;;1.33;1.20;;;14.50;99.90;;;14.74;96.02;101037.41;5164787;28;20514;-58
2023/01/01 08:36:15;;;;;;;1.67;0.95;;;14.50;99.90;;;14.71;96.13;101039.06;5164877;28;20042;-59
2023/01/01 08:38:47;;;;;;;1.45;1.02;;;14.50;99.90;;;14.71;96.95;101036.44;5164640;28;20046;-58
2023/01/01 08:41:20;;;;;;;3.58;0.93;;;14.50;99.90;;;14.70;97.17;101040.81;5164831;28;20134;-58
2023/01/01 08:43:52;;;;;;;2.08;1.13;;;14.50;99.90;;;14.86;99.63;101044.63;5163007;28;20045;-57
2023/01/01 08:46:25;;;;;;;3.55;1.20;;;14.70;99.90;;;15.07;97.85;101042.47;5164003;28;20125;-58
2023/01/01 08:48:57;;;;;;;2.60;1.02;;;14.90;99.90;;;15.27;99.43;101040.25;5164809;28;20050;-58
2023/01/01 08:51:29;;;;;;;2.60;1.00;;;15.10;99.90;;;15.46;98.35;101041.50;5165081;28;20054;-57
2023/01/01 08:54:01;;;;;;;2.65;1.13;;;15.40;99.90;;;15.60;95.85;101031.22;5164583;28;20042;-59
2023/01/01 08:56:36;;;;;;;3.75;1.27;;;15.50;99.90;;;15.68;94.61;101029.66;5164435;28;20549;-57
2023/01/01 08:59:08;;;;;;;3.35;1.13;;;15.60;99.90;;;15.62;94.55;101022.53;5164357;28;20042;-60
2023/01/01 09:01:41;;;;;;;3.75;1.13;;;15.50;99.90;;;15.51;95.13;101024.03;5164434;28;20043;-58
2023/01/01 09:04:13;;;;;;;4.00;1.45;;;15.40;99.90;;;15.42;96.10;101030.03;5164487;28;20046;-58
2023/01/01 09:06:45;;;;;;;3.50;1.20;;;15.30;99.90;;;15.39;96.27;101040.50;5164338;28;20404;-59
2023/01/01 09:09:17;;;;;;;1.80;1.00;;;15.20;99.90;;;15.32;96.15;101046.47;5163972;28;20050;-58
2023/01/01 09:11:53;;;;;;;2.72;0.90;;;15.20;99.90;;;15.25;97.28;101054.19;5164359;28;20101;-59
2023/01/01 09:14:25;;;;;;;2.72;1.10;;;15.10;99.90;;;15.17;97.45;101054.03;5164304;28;20047;-59
2023/01/01 09:16:57;;;;;;;2.53;1.08;;;15.00;99.90;;;15.14;97.92;101059.25;5164324;28;20507;-59
2023/01/01 09:19:29;;;;;;;2.30;0.90;;;15.00;99.90;;;15.07;98.80;101058.22;5163589;28;20038;-60
2023/01/01 09:22:01;;;;;;;4.13;1.08;;;14.90;99.90;;;15.05;99.03;101062.53;5164413;28;20519;-60
2023/01/01 09:24:34;;;;;;;5.00;1.23;;;14.90;99.90;;;15.05;99.35;101059.03;5164231;28;20519;-59
2023/01/01 09:27:07;;;;;;;2.45;1.10;;;14.80;99.90;;;15.00;99.82;101060.69;5155452;28;20058;-60
2023/01/01 09:29:39;;;;;;;4.15;1.30;;;14.80;99.90;;;15.02;99.44;101086.13;5162564;28;20053;-60
2023/01/01 09:32:11;;;;;;;4.32;1.15;;;14.80;99.90;;;15.00;100.00;101102.72;5161670;28;20516;-58
2023/01/01 09:34:43;;;;;;;6.85;2.75;;;14.80;99.90;;;15.00;100.00;101097.44;5163382;28;20043;-59
2023/01/01 09:37:15;;;;;;;4.40;2.25;;;14.80;99.90;;;15.00;100.00;101100.06;5160855;28;20057;-58
2023/01/01 09:39:48;;;;;;;4.53;1.58;;;14.80;99.90;;;14.99;100.00;101112.28;5163213;28;20392;-59
2023/01/01 09:42:34;;;;;;;4.07;1.17;;;14.80;99.90;;;15.01;99.86;101120.22;5212608;22;20036;-60
2023/01/01 09:45:21;;;;;;;4.60;1.30;;;14.80;99.90;;;14.97;100.00;101128.88;5230988;28;20048;-57
2023/01/01 09:47:57;;;;;;;4.15;1.23;;;14.80;99.90;;;14.97;100.00;101126.25;5227368;28;20052;-58
2023/01/01 09:50:35;;;;;;;5.93;1.13;;;14.80;99.90;;;14.96;100.00;101129.72;5245549;28;20104;-56
2023/01/01 09:53:15;;;;;;;2.17;1.10;;;14.70;99.90;;;14.92;99.93;101132.28;5245782;28;20442;-56
2023/01/01 09:55:53;;;;;;;2.50;1.25;;;14.80;99.90;;;14.90;100.00;101126.09;5245906;28;20044;-58
2023/01/01 09:58:30;;;;;;;2.83;1.27;;;14.70;99.90;;;14.90;100.00;101128.72;5244286;28;20041;-57
2023/01/01 10:01:25;;;;;;;1.67;0.90;;;14.70;99.90;;;14.91;100.00;101129.63;5226508;28;20059;-57
2023/01/01 10:04:03;;;;;;;6.05;1.50;;;14.70;99.90;;;14.94;100.00;101134.94;5245339;28;20037;-58
2023/01/01 10:06:43;;;;;;;2.83;1.00;;;14.70;99.90;;;14.92;100.00;101123.50;5228598;28;20051;-58
2023/01/01 10:09:22;;;;;;;4.22;1.20;;;14.70;99.90;;;14.97;99.93;101123.63;5245645;28;20045;-58
2023/01/01 10:12:03;;;;;;;4.25;1.17;;;14.70;99.90;;;14.99;100.00;101122.78;5246284;28;20050;-56
2023/01/01 10:14:40;;;;;;;1.70;1.02;;;14.70;99.90;;;14.99;100.00;101135.91;5246161;28;20039;-57
2023/01/01 10:17:18;;;;;;;2.13;0.93;;;14.70;99.90;;;14.96;100.00;101143.75;5245418;28;20049;-57
2023/01/01 10:19:53;;;;;;;4.05;1.10;;;14.70;99.90;;;14.95;100.00;101134.09;5245272;28;20501;-58
2023/01/01 10:22:33;;;;;;;2.15;0.90;;;14.70;99.90;;;14.93;100.00;101127.91;5246015;28;20373;-56
2023/01/01 10:25:17;;;;;;;2.10;0.93;;;14.70;99.90;;;14.93;100.00;101134.06;5245882;28;20497;-56
2023/01/01 10:27:54;;;;;;;3.28;1.00;;;14.70;99.90;;;14.93;100.00;101128.81;5245324;28;20045;-58
2023/01/01 10:30:29;;;;;;;3.38;1.20;;;14.70;99.90;;;14.97;100.00;101126.25;5246235;28;20045;-58
2023/01/01 10:33:02;;;;;;;2.53;0.88;;;14.70;99.90;;;14.98;100.00;101125.38;5246005;28;20063;-59
2023/01/01 10:35:36;;;;;;;2.08;0.93;;;14.70;99.90;;;14.95;100.00;101135.84;5237304;28;20056;-59
2023/01/01 10:38:12;;;;;;;1.85;0.98;;;14.70;99.90;;;14.98;100.00;101135.88;5221865;28;20049;-57
2023/01/01 10:40:44;;;;;;;5.43;1.35;;;14.80;99.90;;;14.97;100.00;101132.38;5216381;28;20041;-58
2023/01/01 10:43:16;;;;;;;3.17;1.10;;;14.70;99.90;;;14.96;100.00;101128.00;5219031;28;20049;-57
2023/01/01 10:45:54;;;;;;;3.90;1.15;;;14.80;99.90;;;14.97;100.00;101113.13;5204205;28;20073;-58